sensor_id;sensor_type;location;lat;lon;timestamp;P1;durP1;ratioP1;P2;durP2;ratioP2
31596;SDS011;18201;50.978;7.034;2023-06-14T00:00:09;8.85;;;6.63;;
31596;SDS011;18201;50.978;7.034;2023-06-14T00:00:42;12.50;;;7.03;;
31596;SDS011;18201;50.978;7.034;2023-06-14T00:01:14;7.18;;;6.45;;
31596;SDS011;18201;50.978;7.034;2023-06-14T00:01:45;6.75;;;6.15;;
31596;SDS011;18201;50.978;7.034;2023-06-14T00:02:16;7.32;;;6.63;;
31596;SDS011;18201;50.978;7.034;2023-06-14T00:02:48;7.35;;;6.75;;
31596;SDS011;18201;50.978;7.034;2023-06-14T00:03:18;7.68;;;6.55;;
31596;SDS011;18201;50.978;7.034;2023-06-14T00:03:52;10.93;;;6.30;;
31596;SDS011;18201;50.978;7.034;2023-06-14T00:04:24;12.23;;;6.82;;
31596;SDS011;18201;50.978;7.034;2023-06-14T00:04:55;6.72;;;6.13;;
31596;SDS011;18201;50.978;7.034;2023-06-14T00:05:26;7.70;;;6.93;;
31596;SDS011;18201;50.978;7.034;2023-06-14T00:05:59;7.22;;;6.30;;
31596;SDS011;18201;50.978;7.034;2023-06-14T00:06:30;12.60;;;6.70;;
31596;SDS011;18201;50.978;7.034;2023-06-14T00:07:01;7.78;;;6.63;;
31596;SDS011;18201;50.978;7.034;2023-06-14T00:07:33;7.80;;;6.18;;
31596;SDS011;18201;50.978;7.034;2023-06-14T00:08:05;10.15;;;7.95;;
31596;SDS011;18201;50.978;7.034;2023-06-14T00:08:37;7.35;;;6.72;;
31596;SDS011;18201;50.978;7.034;2023-06-14T00:09:10;7.00;;;6.30;;
31596;SDS011;18201;50.978;7.034;2023-06-14T00:09:41;9.20;;;6.63;;
31596;SDS011;18201;50.978;7.034;2023-06-14T00:10:13;8.60;;;6.95;;
31596;SDS011;18201;50.978;7.034;2023-06-14T00:10:46;8.65;;;6.75;;
31596;SDS011;18201;50.978;7.034;2023-06-14T00:11:17;8.80;;;6.95;;
31596;SDS011;18201;50.978;7.034;2023-06-14T00:11:48;7.53;;;6.80;;
31596;SDS011;18201;50.978;7.034;2023-06-14T00:12:20;7.53;;;6.53;;
31596;SDS011;18201;50.978;7.034;2023-06-14T00:12:51;12.05;;;7.25;;
31596;SDS011;18201;50.978;7.034;2023-06-14T00:13:22;12.40;;;6.55;;
31596;SDS011;18201;50.978;7.034;2023-06-14T00:13:53;10.95;;;6.78;;
31596;SDS011;18201;50.978;7.034;2023-06-14T00:14:24;12.60;;;7.80;;
31596;SDS011;18201;50.978;7.034;2023-06-14T00:14:55;6.97;;;6.28;;
31596;SDS011;18201;50.978;7.034;2023-06-14T00:15:31;7.85;;;7.05;;
31596;SDS011;18201;50.978;7.034;2023-06-14T00:16:03;9.32;;;7.13;;
31596;SDS011;18201;50.978;7.034;2023-06-14T00:16:34;7.95;;;7.10;;
31596;SDS011;18201;50.978;7.034;2023-06-14T00:17:07;8.90;;;6.72;;
31596;SDS011;18201;50.978;7.034;2023-06-14T00:17:38;7.43;;;6.68;;
31596;SDS011;18201;50.978;7.034;2023-06-14T00:18:09;7.50;;;6.80;;
31596;SDS011;18201;50.978;7.034;2023-06-14T00:18:42;11.40;;;6.80;;
31596;SDS011;18201;50.978;7.034;2023-06-14T00:19:13;6.72;;;6.05;;
31596;SDS011;18201;50.978;7.034;2023-06-14T00:19:45;7.10;;;6.40;;
31596;SDS011;18201;50.978;7.034;2023-06-14T00:20:17;9.52;;;6.35;;
31596;SDS011;18201;50.978;7.034;2023-06-14T00:20:48;10.63;;;6.90;;
31596;SDS011;18201;50.978;7.034;2023-06-14T00:21:20;7.20;;;6.40;;
31596;SDS011;18201;50.978;7.034;2023-06-14T00:21:51;14.50;;;7.18;;
31596;SDS011;18201;50.978;7.034;2023-06-14T00:22:23;8.23;;;6.38;;
31596;SDS011;18201;50.978;7.034;2023-06-14T00:22:54;6.65;;;6.05;;
31596;SDS011;18201;50.978;7.034;2023-06-14T00:23:26;7.28;;;6.28;;
31596;SDS011;18201;50.978;7.034;2023-06-14T00:23:57;7.75;;;6.57;;
31596;SDS011;18201;50.978;7.034;2023-06-14T00:24:28;7.43;;;6.60;;
31596;SDS011;18201;50.978;7.034;2023-06-14T00:25:00;7.20;;;6.60;;
31596;SDS011;18201;50.978;7.034;2023-06-14T00:25:32;7.13;;;6.32;;
31596;SDS011;18201;50.978;7.034;2023-06-14T00:26:03;7.88;;;7.00;;
31596;SDS011;18201;50.978;7.034;2023-06-14T00:26:35;7.55;;;6.78;;
31596;SDS011;18201;50.978;7.034;2023-06-14T00:27:06;7.65;;;6.45;;
31596;SDS011;18201;50.978;7.034;2023-06-14T00:27:37;7.65;;;6.97;;
31596;SDS011;18201;50.978;7.034;2023-06-14T00:28:09;9.13;;;7.35;;
31596;SDS011;18201;50.978;7.034;2023-06-14T00:28:40;9.68;;;7.07;;
31596;SDS011;18201;50.978;7.034;2023-06-14T00:29:11;8.57;;;7.28;;
31596;SDS011;18201;50.978;7.034;2023-06-14T00:29:42;8.95;;;6.75;;
31596;SDS011;18201;50.978;7.034;2023-06-14T00:30:14;6.75;;;6.05;;
31596;SDS011;18201;50.978;7.034;2023-06-14T00:30:45;7.60;;;7.00;;
31596;SDS011;18201;50.978;7.034;2023-06-14T00:31:17;7.05;;;6.45;;
31596;SDS011;18201;50.978;7.034;2023-06-14T00:31:47;7.53;;;6.93;;
31596;SDS011;18201;50.978;7.034;2023-06-14T00:32:18;7.05;;;6.25;;
31596;SDS011;18201;50.978;7.034;2023-06-14T00:32:49;7.82;;;7.10;;
31596;SDS011;18201;50.978;7.034;2023-06-14T00:33:22;7.35;;;6.65;;
31596;SDS011;18201;50.978;7.034;2023-06-14T00:33:52;9.40;;;6.78;;
31596;SDS011;18201;50.978;7.034;2023-06-14T00:34:23;7.13;;;6.22;;
31596;SDS011;18201;50.978;7.034;2023-06-14T00:34:54;7.60;;;6.90;;
31596;SDS011;18201;50.978;7.034;2023-06-14T00:35:26;8.18;;;6.90;;
31596;SDS011;18201;50.978;7.034;2023-06-14T00:35:57;7.88;;;6.95;;
31596;SDS011;18201;50.978;7.034;2023-06-14T00:36:28;13.05;;;11.65;;
31596;SDS011;18201;50.978;7.034;2023-06-14T00:37:00;19.95;;;15.07;;
31596;SDS011;18201;50.978;7.034;2023-06-14T00:37:31;19.88;;;15.00;;
31596;SDS011;18201;50.978;7.034;2023-06-14T00:38:02;14.85;;;11.82;;
31596;SDS011;18201;50.978;7.034;2023-06-14T00:38:34;11.75;;;10.40;;
31596;SDS011;18201;50.978;7.034;2023-06-14T00:39:05;12.07;;;10.00;;
31596;SDS011;18201;50.978;7.034;2023-06-14T00:39:36;15.60;;;12.63;;
31596;SDS011;18201;50.978;7.034;2023-06-14T00:40:08;11.10;;;9.85;;
31596;SDS011;18201;50.978;7.034;2023-06-14T00:40:40;9.57;;;8.18;;
31596;SDS011;18201;50.978;7.034;2023-06-14T00:41:11;9.40;;;8.45;;
31596;SDS011;18201;50.978;7.034;2023-06-14T00:41:42;8.10;;;7.40;;
31596;SDS011;18201;50.978;7.034;2023-06-14T00:42:22;11.35;;;8.23;;
31596;SDS011;18201;50.978;7.034;2023-06-14T00:42:55;9.80;;;7.57;;
31596;SDS011;18201;50.978;7.034;2023-06-14T00:43:26;7.35;;;6.75;;
31596;SDS011;18201;50.978;7.034;2023-06-14T00:43:57;9.02;;;6.70;;
31596;SDS011;18201;50.978;7.034;2023-06-14T00:44:30;7.78;;;7.05;;
31596;SDS011;18201;50.978;7.034;2023-06-14T00:45:00;8.73;;;7.07;;
31596;SDS011;18201;50.978;7.034;2023-06-14T00:45:32;10.73;;;6.72;;
31596;SDS011;18201;50.978;7.034;2023-06-14T00:46:05;7.35;;;6.47;;
31596;SDS011;18201;50.978;7.034;2023-06-14T00:46:36;8.27;;;6.95;;
31596;SDS011;18201;50.978;7.034;2023-06-14T00:47:08;7.38;;;6.75;;
31596;SDS011;18201;50.978;7.034;2023-06-14T00:47:40;7.40;;;6.40;;
31596;SDS011;18201;50.978;7.034;2023-06-14T00:48:12;7.63;;;6.88;;
31596;SDS011;18201;50.978;7.034;2023-06-14T00:48:45;8.85;;;7.65;;
31596;SDS011;18201;50.978;7.034;2023-06-14T00:49:17;8.43;;;6.75;;
31596;SDS011;18201;50.978;7.034;2023-06-14T00:49:50;7.43;;;6.63;;
31596;SDS011;18201;50.978;7.034;2023-06-14T00:50:21;7.40;;;6.57;;
31596;SDS011;18201;50.978;7.034;2023-06-14T00:50:54;7.65;;;6.53;;
31596;SDS011;18201;50.978;7.034;2023-06-14T00:51:25;9.32;;;6.97;;
31596;SDS011;18201;50.978;7.034;2023-06-14T00:51:57;8.55;;;6.88;;
31596;SDS011;18201;50.978;7.034;2023-06-14T00:52:30;7.32;;;6.70;;
31596;SDS011;18201;50.978;7.034;2023-06-14T00:53:02;8.43;;;6.85;;
31596;SDS011;18201;50.978;7.034;2023-06-14T00:53:33;7.47;;;6.43;;
31596;SDS011;18201;50.978;7.034;2023-06-14T00:54:05;9.50;;;6.60;;
31596;SDS011;18201;50.978;7.034;2023-06-14T00:54:37;9.20;;;6.45;;
31596;SDS011;18201;50.978;7.034;2023-06-14T00:55:08;11.07;;;7.43;;
31596;SDS011;18201;50.978;7.034;2023-06-14T00:55:41;6.57;;;6.00;;
31596;SDS011;18201;50.978;7.034;2023-06-14T00:56:12;8.02;;;7.20;;
31596;SDS011;18201;50.978;7.034;2023-06-14T00:56:44;9.50;;;7.22;;
31596;SDS011;18201;50.978;7.034;2023-06-14T00:57:15;10.23;;;6.80;;
31596;SDS011;18201;50.978;7.034;2023-06-14T00:57:48;7.28;;;6.60;;
31596;SDS011;18201;50.978;7.034;2023-06-14T00:58:19;8.40;;;6.85;;
31596;SDS011;18201;50.978;7.034;2023-06-14T00:58:51;8.65;;;7.18;;
31596;SDS011;18201;50.978;7.034;2023-06-14T00:59:23;8.63;;;7.03;;
31596;SDS011;18201;50.978;7.034;2023-06-14T00:59:55;8.65;;;7.25;;
31596;SDS011;18201;50.978;7.034;2023-06-14T01:00:26;8.10;;;7.30;;
31596;SDS011;18201;50.978;7.034;2023-06-14T01:00:58;9.05;;;6.50;;
31596;SDS011;18201;50.978;7.034;2023-06-14T01:01:29;8.23;;;6.70;;
31596;SDS011;18201;50.978;7.034;2023-06-14T01:02:02;8.27;;;6.40;;
31596;SDS011;18201;50.978;7.034;2023-06-14T01:02:34;9.68;;;6.32;;
31596;SDS011;18201;50.978;7.034;2023-06-14T01:03:06;7.90;;;7.03;;
31596;SDS011;18201;50.978;7.034;2023-06-14T01:03:37;10.88;;;6.55;;
31596;SDS011;18201;50.978;7.034;2023-06-14T01:04:10;9.73;;;6.93;;
31596;SDS011;18201;50.978;7.034;2023-06-14T01:04:43;8.07;;;6.95;;
31596;SDS011;18201;50.978;7.034;2023-06-14T01:05:18;7.88;;;7.22;;
31596;SDS011;18201;50.978;7.034;2023-06-14T01:05:49;8.27;;;6.80;;
31596;SDS011;18201;50.978;7.034;2023-06-14T01:06:28;8.93;;;7.70;;
31596;SDS011;18201;50.978;7.034;2023-06-14T01:07:06;7.65;;;6.82;;
31596;SDS011;18201;50.978;7.034;2023-06-14T01:07:47;7.32;;;6.60;;
31596;SDS011;18201;50.978;7.034;2023-06-14T01:08:36;9.88;;;6.68;;
31596;SDS011;18201;50.978;7.034;2023-06-14T01:09:18;7.53;;;6.82;;
31596;SDS011;18201;50.978;7.034;2023-06-14T01:09:58;9.85;;;7.03;;
31596;SDS011;18201;50.978;7.034;2023-06-14T01:10:44;8.07;;;7.25;;
31596;SDS011;18201;50.978;7.034;2023-06-14T01:11:24;8.18;;;6.63;;
31596;SDS011;18201;50.978;7.034;2023-06-14T01:12:17;8.35;;;6.93;;
31596;SDS011;18201;50.978;7.034;2023-06-14T01:12:56;10.13;;;6.97;;
31596;SDS011;18201;50.978;7.034;2023-06-14T01:13:33;7.63;;;6.93;;
31596;SDS011;18201;50.978;7.034;2023-06-14T01:14:07;7.63;;;7.00;;
31596;SDS011;18201;50.978;7.034;2023-06-14T01:14:41;10.85;;;6.72;;
31596;SDS011;18201;50.978;7.034;2023-06-14T01:15:12;9.48;;;6.75;;
31596;SDS011;18201;50.978;7.034;2023-06-14T01:15:44;7.85;;;7.03;;
31596;SDS011;18201;50.978;7.034;2023-06-14T01:16:16;8.25;;;7.38;;
31596;SDS011;18201;50.978;7.034;2023-06-14T01:16:48;6.78;;;6.25;;
31596;SDS011;18201;50.978;7.034;2023-06-14T01:17:23;7.50;;;6.80;;
31596;SDS011;18201;50.978;7.034;2023-06-14T01:17:57;7.75;;;7.05;;
31596;SDS011;18201;50.978;7.034;2023-06-14T01:18:33;6.90;;;6.07;;
31596;SDS011;18201;50.978;7.034;2023-06-14T01:19:05;8.65;;;6.55;;
31596;SDS011;18201;50.978;7.034;2023-06-14T01:19:42;7.50;;;6.82;;
31596;SDS011;18201;50.978;7.034;2023-06-14T01:20:14;8.55;;;7.35;;
31596;SDS011;18201;50.978;7.034;2023-06-14T01:20:47;8.52;;;6.88;;
31596;SDS011;18201;50.978;7.034;2023-06-14T01:21:20;7.72;;;7.03;;
31596;SDS011;18201;50.978;7.034;2023-06-14T01:21:52;8.02;;;7.25;;
31596;SDS011;18201;50.978;7.034;2023-06-14T01:22:23;7.63;;;6.82;;
31596;SDS011;18201;50.978;7.034;2023-06-14T01:22:57;8.93;;;7.20;;
31596;SDS011;18201;50.978;7.034;2023-06-14T01:23:32;8.48;;;7.57;;
31596;SDS011;18201;50.978;7.034;2023-06-14T01:24:04;7.47;;;6.78;;
31596;SDS011;18201;50.978;7.034;2023-06-14T01:24:35;8.30;;;7.57;;
31596;SDS011;18201;50.978;7.034;2023-06-14T01:25:09;8.13;;;7.32;;
31596;SDS011;18201;50.978;7.034;2023-06-14T01:25:42;8.27;;;7.47;;
31596;SDS011;18201;50.978;7.034;2023-06-14T01:26:14;7.90;;;7.03;;
31596;SDS011;18201;50.978;7.034;2023-06-14T01:26:46;9.52;;;7.40;;
31596;SDS011;18201;50.978;7.034;2023-06-14T01:27:22;7.32;;;6.72;;
31596;SDS011;18201;50.978;7.034;2023-06-14T01:27:55;8.90;;;7.05;;
31596;SDS011;18201;50.978;7.034;2023-06-14T01:28:29;9.10;;;7.93;;
31596;SDS011;18201;50.978;7.034;2023-06-14T01:29:04;8.23;;;7.53;;
31596;SDS011;18201;50.978;7.034;2023-06-14T01:29:36;8.00;;;7.18;;
31596;SDS011;18201;50.978;7.034;2023-06-14T01:30:07;10.63;;;8.10;;
31596;SDS011;18201;50.978;7.034;2023-06-14T01:30:40;11.35;;;7.88;;
31596;SDS011;18201;50.978;7.034;2023-06-14T01:31:16;7.60;;;6.88;;
31596;SDS011;18201;50.978;7.034;2023-06-14T01:31:51;8.65;;;7.85;;
31596;SDS011;18201;50.978;7.034;2023-06-14T01:32:24;9.00;;;7.43;;
31596;SDS011;18201;50.978;7.034;2023-06-14T01:32:57;9.02;;;7.03;;
31596;SDS011;18201;50.978;7.034;2023-06-14T01:33:28;7.22;;;6.63;;
31596;SDS011;18201;50.978;7.034;2023-06-14T01:34:00;7.72;;;7.03;;
31596;SDS011;18201;50.978;7.034;2023-06-14T01:34:32;8.13;;;7.18;;
31596;SDS011;18201;50.978;7.034;2023-06-14T01:35:03;7.32;;;6.63;;
31596;SDS011;18201;50.978;7.034;2023-06-14T01:35:34;8.13;;;6.82;;
31596;SDS011;18201;50.978;7.034;2023-06-14T01:36:06;7.95;;;7.28;;
31596;SDS011;18201;50.978;7.034;2023-06-14T01:36:41;8.13;;;7.43;;
31596;SDS011;18201;50.978;7.034;2023-06-14T01:37:14;9.35;;;7.65;;
31596;SDS011;18201;50.978;7.034;2023-06-14T01:37:46;14.98;;;7.40;;
31596;SDS011;18201;50.978;7.034;2023-06-14T01:38:20;8.60;;;7.80;;
31596;SDS011;18201;50.978;7.034;2023-06-14T01:38:53;8.57;;;7.25;;
31596;SDS011;18201;50.978;7.034;2023-06-14T01:39:26;10.25;;;7.68;;
31596;SDS011;18201;50.978;7.034;2023-06-14T01:39:58;8.75;;;7.25;;
31596;SDS011;18201;50.978;7.034;2023-06-14T01:40:30;7.47;;;6.82;;
31596;SDS011;18201;50.978;7.034;2023-06-14T01:41:03;8.15;;;7.35;;
31596;SDS011;18201;50.978;7.034;2023-06-14T01:41:34;11.27;;;7.28;;
31596;SDS011;18201;50.978;7.034;2023-06-14T01:42:07;8.27;;;7.28;;
31596;SDS011;18201;50.978;7.034;2023-06-14T01:42:38;7.90;;;6.95;;
31596;SDS011;18201;50.978;7.034;2023-06-14T01:43:10;7.55;;;6.93;;
31596;SDS011;18201;50.978;7.034;2023-06-14T01:43:41;8.82;;;6.95;;
31596;SDS011;18201;50.978;7.034;2023-06-14T01:44:14;8.80;;;6.95;;
31596;SDS011;18201;50.978;7.034;2023-06-14T01:44:46;8.63;;;7.45;;
31596;SDS011;18201;50.978;7.034;2023-06-14T01:45:18;7.63;;;6.93;;
31596;SDS011;18201;50.978;7.034;2023-06-14T01:45:51;7.65;;;6.95;;
31596;SDS011;18201;50.978;7.034;2023-06-14T01:46:25;9.10;;;7.55;;
31596;SDS011;18201;50.978;7.034;2023-06-14T01:46:56;8.05;;;7.25;;
31596;SDS011;18201;50.978;7.034;2023-06-14T01:47:27;7.88;;;7.07;;
31596;SDS011;18201;50.978;7.034;2023-06-14T01:48:00;8.27;;;7.53;;
31596;SDS011;18201;50.978;7.034;2023-06-14T01:48:31;7.63;;;6.93;;
31596;SDS011;18201;50.978;7.034;2023-06-14T01:49:02;8.30;;;7.55;;
31596;SDS011;18201;50.978;7.034;2023-06-14T01:49:34;8.82;;;7.47;;
31596;SDS011;18201;50.978;7.034;2023-06-14T01:50:05;8.60;;;7.03;;
31596;SDS011;18201;50.978;7.034;2023-06-14T01:50:37;7.72;;;6.93;;
31596;SDS011;18201;50.978;7.034;2023-06-14T01:51:08;7.53;;;6.72;;
31596;SDS011;18201;50.978;7.034;2023-06-14T01:51:39;9.13;;;6.95;;
31596;SDS011;18201;50.978;7.034;2023-06-14T01:52:10;8.75;;;7.85;;
31596;SDS011;18201;50.978;7.034;2023-06-14T01:52:41;8.25;;;6.93;;
31596;SDS011;18201;50.978;7.034;2023-06-14T01:53:13;11.20;;;7.18;;
31596;SDS011;18201;50.978;7.034;2023-06-14T01:53:45;7.57;;;6.82;;
31596;SDS011;18201;50.978;7.034;2023-06-14T01:54:17;7.72;;;6.95;;
31596;SDS011;18201;50.978;7.034;2023-06-14T01:54:49;8.07;;;7.15;;
31596;SDS011;18201;50.978;7.034;2023-06-14T01:55:20;9.40;;;7.25;;
31596;SDS011;18201;50.978;7.034;2023-06-14T01:55:52;8.27;;;7.32;;
31596;SDS011;18201;50.978;7.034;2023-06-14T01:56:24;7.72;;;7.10;;
31596;SDS011;18201;50.978;7.034;2023-06-14T01:56:56;7.75;;;7.05;;
31596;SDS011;18201;50.978;7.034;2023-06-14T01:57:27;8.20;;;7.00;;
31596;SDS011;18201;50.978;7.034;2023-06-14T01:57:59;7.93;;;7.22;;
31596;SDS011;18201;50.978;7.034;2023-06-14T01:58:31;8.02;;;7.30;;
31596;SDS011;18201;50.978;7.034;2023-06-14T01:59:02;10.82;;;7.50;;
31596;SDS011;18201;50.978;7.034;2023-06-14T01:59:33;10.73;;;7.65;;
31596;SDS011;18201;50.978;7.034;2023-06-14T02:00:05;8.32;;;7.63;;
31596;SDS011;18201;50.978;7.034;2023-06-14T02:00:40;8.38;;;7.00;;
31596;SDS011;18201;50.978;7.034;2023-06-14T02:01:13;11.68;;;7.70;;
31596;SDS011;18201;50.978;7.034;2023-06-14T02:01:46;8.30;;;7.50;;
31596;SDS011;18201;50.978;7.034;2023-06-14T02:02:17;9.77;;;7.35;;
31596;SDS011;18201;50.978;7.034;2023-06-14T02:02:48;7.95;;;7.32;;
31596;SDS011;18201;50.978;7.034;2023-06-14T02:03:20;7.90;;;6.93;;
31596;SDS011;18201;50.978;7.034;2023-06-14T02:03:51;7.72;;;7.03;;
31596;SDS011;18201;50.978;7.034;2023-06-14T02:04:23;8.48;;;7.68;;
31596;SDS011;18201;50.978;7.034;2023-06-14T02:04:54;8.15;;;7.45;;
31596;SDS011;18201;50.978;7.034;2023-06-14T02:05:27;9.25;;;7.60;;
31596;SDS011;18201;50.978;7.034;2023-06-14T02:05:58;8.02;;;7.22;;
31596;SDS011;18201;50.978;7.034;2023-06-14T02:06:29;8.63;;;7.90;;
31596;SDS011;18201;50.978;7.034;2023-06-14T02:07:00;8.10;;;7.40;;
31596;SDS011;18201;50.978;7.034;2023-06-14T02:07:31;8.88;;;8.05;;
31596;SDS011;18201;50.978;7.034;2023-06-14T02:08:03;10.02;;;8.20;;
31596;SDS011;18201;50.978;7.034;2023-06-14T02:08:35;8.52;;;7.63;;
31596;SDS011;18201;50.978;7.034;2023-06-14T02:09:07;9.38;;;7.60;;
31596;SDS011;18201;50.978;7.034;2023-06-14T02:09:38;9.25;;;7.57;;
31596;SDS011;18201;50.978;7.034;2023-06-14T02:10:10;11.00;;;7.88;;
31596;SDS011;18201;50.978;7.034;2023-06-14T02:10:41;8.13;;;7.25;;
31596;SDS011;18201;50.978;7.034;2023-06-14T02:11:12;11.10;;;8.13;;
31596;SDS011;18201;50.978;7.034;2023-06-14T02:11:43;7.90;;;7.10;;
31596;SDS011;18201;50.978;7.034;2023-06-14T02:12:14;10.07;;;7.72;;
31596;SDS011;18201;50.978;7.034;2023-06-14T02:12:45;8.88;;;7.97;;
31596;SDS011;18201;50.978;7.034;2023-06-14T02:13:16;8.90;;;7.88;;
31596;SDS011;18201;50.978;7.034;2023-06-14T02:13:48;7.82;;;7.13;;
31596;SDS011;18201;50.978;7.034;2023-06-14T02:14:19;8.52;;;7.72;;
31596;SDS011;18201;50.978;7.034;2023-06-14T02:14:50;8.38;;;7.53;;
31596;SDS011;18201;50.978;7.034;2023-06-14T02:15:22;8.52;;;7.72;;
31596;SDS011;18201;50.978;7.034;2023-06-14T02:15:53;10.02;;;7.18;;
31596;SDS011;18201;50.978;7.034;2023-06-14T02:16:24;8.82;;;7.93;;
31596;SDS011;18201;50.978;7.034;2023-06-14T02:16:58;10.60;;;7.43;;
31596;SDS011;18201;50.978;7.034;2023-06-14T02:17:31;8.50;;;7.65;;
31596;SDS011;18201;50.978;7.034;2023-06-14T02:18:02;8.30;;;7.15;;
31596;SDS011;18201;50.978;7.034;2023-06-14T02:18:33;9.10;;;7.50;;
31596;SDS011;18201;50.978;7.034;2023-06-14T02:19:05;7.95;;;7.13;;
31596;SDS011;18201;50.978;7.034;2023-06-14T02:19:36;8.15;;;7.18;;
31596;SDS011;18201;50.978;7.034;2023-06-14T02:20:07;9.15;;;7.18;;
31596;SDS011;18201;50.978;7.034;2023-06-14T02:20:39;10.02;;;7.30;;
31596;SDS011;18201;50.978;7.034;2023-06-14T02:21:11;11.38;;;7.78;;
31596;SDS011;18201;50.978;7.034;2023-06-14T02:21:43;7.80;;;7.10;;
31596;SDS011;18201;50.978;7.034;2023-06-14T02:22:14;8.80;;;7.18;;
31596;SDS011;18201;50.978;7.034;2023-06-14T02:22:46;8.57;;;7.28;;
31596;SDS011;18201;50.978;7.034;2023-06-14T02:23:16;8.93;;;7.45;;
31596;SDS011;18201;50.978;7.034;2023-06-14T02:23:47;9.35;;;7.95;;
31596;SDS011;18201;50.978;7.034;2023-06-14T02:24:21;11.13;;;8.20;;
31596;SDS011;18201;50.978;7.034;2023-06-14T02:24:53;8.20;;;7.40;;
31596;SDS011;18201;50.978;7.034;2023-06-14T02:25:24;7.70;;;6.75;;
31596;SDS011;18201;50.978;7.034;2023-06-14T02:25:57;7.50;;;6.85;;
31596;SDS011;18201;50.978;7.034;2023-06-14T02:26:28;9.55;;;7.35;;
31596;SDS011;18201;50.978;7.034;2023-06-14T02:27:00;7.40;;;6.70;;
31596;SDS011;18201;50.978;7.034;2023-06-14T02:27:32;7.85;;;7.03;;
31596;SDS011;18201;50.978;7.034;2023-06-14T02:28:03;7.70;;;6.95;;
31596;SDS011;18201;50.978;7.034;2023-06-14T02:28:34;8.18;;;7.30;;
31596;SDS011;18201;50.978;7.034;2023-06-14T02:29:06;11.25;;;7.60;;
31596;SDS011;18201;50.978;7.034;2023-06-14T02:29:39;8.88;;;7.50;;
31596;SDS011;18201;50.978;7.034;2023-06-14T02:30:11;9.48;;;7.80;;
31596;SDS011;18201;50.978;7.034;2023-06-14T02:30:43;8.07;;;7.28;;
31596;SDS011;18201;50.978;7.034;2023-06-14T02:31:14;8.48;;;7.35;;
31596;SDS011;18201;50.978;7.034;2023-06-14T02:31:46;9.65;;;6.78;;
31596;SDS011;18201;50.978;7.034;2023-06-14T02:32:18;7.85;;;7.15;;
31596;SDS011;18201;50.978;7.034;2023-06-14T02:32:49;7.68;;;6.60;;
31596;SDS011;18201;50.978;7.034;2023-06-14T02:33:21;11.88;;;7.68;;
31596;SDS011;18201;50.978;7.034;2023-06-14T02:33:53;8.90;;;6.70;;
31596;SDS011;18201;50.978;7.034;2023-06-14T02:34:24;8.70;;;7.80;;
31596;SDS011;18201;50.978;7.034;2023-06-14T02:34:54;7.45;;;6.72;;
31596;SDS011;18201;50.978;7.034;2023-06-14T02:35:25;7.75;;;6.93;;
31596;SDS011;18201;50.978;7.034;2023-06-14T02:35:58;8.13;;;7.10;;
31596;SDS011;18201;50.978;7.034;2023-06-14T02:36:28;8.20;;;7.30;;
31596;SDS011;18201;50.978;7.034;2023-06-14T02:37:00;7.90;;;7.20;;
31596;SDS011;18201;50.978;7.034;2023-06-14T02:37:32;10.63;;;7.22;;
31596;SDS011;18201;50.978;7.034;2023-06-14T02:38:04;11.45;;;6.95;;
31596;SDS011;18201;50.978;7.034;2023-06-14T02:38:35;7.10;;;6.50;;
31596;SDS011;18201;50.978;7.034;2023-06-14T02:39:07;10.15;;;8.07;;
31596;SDS011;18201;50.978;7.034;2023-06-14T02:39:40;9.10;;;7.43;;
31596;SDS011;18201;50.978;7.034;2023-06-14T02:40:11;8.38;;;7.57;;
31596;SDS011;18201;50.978;7.034;2023-06-14T02:40:42;8.27;;;7.50;;
31596;SDS011;18201;50.978;7.034;2023-06-14T02:41:14;9.38;;;7.60;;
31596;SDS011;18201;50.978;7.034;2023-06-14T02:41:45;11.15;;;7.32;;
31596;SDS011;18201;50.978;7.034;2023-06-14T02:42:16;9.07;;;8.00;;
31596;SDS011;18201;50.978;7.034;2023-06-14T02:42:48;7.05;;;6.45;;
31596;SDS011;18201;50.978;7.034;2023-06-14T02:43:18;7.13;;;6.45;;
31596;SDS011;18201;50.978;7.034;2023-06-14T02:43:50;9.52;;;7.63;;
31596;SDS011;18201;50.978;7.034;2023-06-14T02:44:23;8.73;;;7.45;;
31596;SDS011;18201;50.978;7.034;2023-06-14T02:44:56;10.90;;;7.07;;
31596;SDS011;18201;50.978;7.034;2023-06-14T02:45:27;13.15;;;7.72;;
31596;SDS011;18201;50.978;7.034;2023-06-14T02:45:58;8.77;;;7.97;;
31596;SDS011;18201;50.978;7.034;2023-06-14T02:46:30;11.25;;;7.57;;
31596;SDS011;18201;50.978;7.034;2023-06-14T02:47:01;10.00;;;8.23;;
31596;SDS011;18201;50.978;7.034;2023-06-14T02:47:32;8.75;;;7.28;;
31596;SDS011;18201;50.978;7.034;2023-06-14T02:48:03;8.45;;;7.63;;
31596;SDS011;18201;50.978;7.034;2023-06-14T02:48:35;9.57;;;8.25;;
31596;SDS011;18201;50.978;7.034;2023-06-14T02:49:06;10.88;;;7.75;;
31596;SDS011;18201;50.978;7.034;2023-06-14T02:49:37;10.90;;;8.18;;
31596;SDS011;18201;50.978;7.034;2023-06-14T02:50:09;9.90;;;8.18;;
31596;SDS011;18201;50.978;7.034;2023-06-14T02:50:40;8.57;;;7.78;;
31596;SDS011;18201;50.978;7.034;2023-06-14T02:51:10;8.55;;;7.60;;
31596;SDS011;18201;50.978;7.034;2023-06-14T02:51:42;8.43;;;7.57;;
31596;SDS011;18201;50.978;7.034;2023-06-14T02:52:13;9.25;;;7.72;;
31596;SDS011;18201;50.978;7.034;2023-06-14T02:52:44;10.50;;;7.32;;
31596;SDS011;18201;50.978;7.034;2023-06-14T02:53:15;8.57;;;7.57;;
31596;SDS011;18201;50.978;7.034;2023-06-14T02:53:47;8.85;;;7.85;;
31596;SDS011;18201;50.978;7.034;2023-06-14T02:54:18;9.52;;;7.65;;
31596;SDS011;18201;50.978;7.034;2023-06-14T02:54:51;10.73;;;6.97;;
31596;SDS011;18201;50.978;7.034;2023-06-14T02:55:24;12.18;;;7.82;;
31596;SDS011;18201;50.978;7.034;2023-06-14T02:55:54;13.52;;;8.20;;
31596;SDS011;18201;50.978;7.034;2023-06-14T02:56:26;8.60;;;7.68;;
31596;SDS011;18201;50.978;7.034;2023-06-14T02:56:58;10.00;;;7.88;;
31596;SDS011;18201;50.978;7.034;2023-06-14T02:57:29;11.35;;;8.45;;
31596;SDS011;18201;50.978;7.034;2023-06-14T02:58:00;8.50;;;7.80;;
31596;SDS011;18201;50.978;7.034;2023-06-14T02:58:32;10.02;;;8.13;;
31596;SDS011;18201;50.978;7.034;2023-06-14T02:59:03;9.93;;;7.47;;
31596;SDS011;18201;50.978;7.034;2023-06-14T02:59:34;8.57;;;7.40;;
31596;SDS011;18201;50.978;7.034;2023-06-14T03:00:06;10.32;;;7.72;;
31596;SDS011;18201;50.978;7.034;2023-06-14T03:00:43;10.32;;;7.55;;
31596;SDS011;18201;50.978;7.034;2023-06-14T03:01:14;7.65;;;6.88;;
31596;SDS011;18201;50.978;7.034;2023-06-14T03:01:44;9.05;;;8.15;;
31596;SDS011;18201;50.978;7.034;2023-06-14T03:02:16;8.20;;;7.50;;
31596;SDS011;18201;50.978;7.034;2023-06-14T03:02:47;8.48;;;7.40;;
31596;SDS011;18201;50.978;7.034;2023-06-14T03:03:18;8.52;;;7.72;;
31596;SDS011;18201;50.978;7.034;2023-06-14T03:03:49;7.97;;;7.25;;
31596;SDS011;18201;50.978;7.034;2023-06-14T03:04:21;7.93;;;7.20;;
31596;SDS011;18201;50.978;7.034;2023-06-14T03:04:52;8.48;;;7.60;;
31596;SDS011;18201;50.978;7.034;2023-06-14T03:05:24;9.02;;;7.85;;
31596;SDS011;18201;50.978;7.034;2023-06-14T03:05:58;12.95;;;8.23;;
31596;SDS011;18201;50.978;7.034;2023-06-14T03:06:34;9.63;;;7.32;;
31596;SDS011;18201;50.978;7.034;2023-06-14T03:07:06;7.90;;;7.00;;
31596;SDS011;18201;50.978;7.034;2023-06-14T03:07:39;8.43;;;7.22;;
31596;SDS011;18201;50.978;7.034;2023-06-14T03:08:11;7.18;;;6.47;;
31596;SDS011;18201;50.978;7.034;2023-06-14T03:08:46;7.70;;;6.97;;
31596;SDS011;18201;50.978;7.034;2023-06-14T03:09:19;11.85;;;7.90;;
31596;SDS011;18201;50.978;7.034;2023-06-14T03:09:51;10.75;;;7.78;;
31596;SDS011;18201;50.978;7.034;2023-06-14T03:10:22;8.18;;;7.25;;
31596;SDS011;18201;50.978;7.034;2023-06-14T03:10:54;9.43;;;7.13;;
31596;SDS011;18201;50.978;7.034;2023-06-14T03:11:26;7.78;;;6.97;;
31596;SDS011;18201;50.978;7.034;2023-06-14T03:11:57;8.25;;;7.45;;
31596;SDS011;18201;50.978;7.034;2023-06-14T03:12:28;7.80;;;7.03;;
31596;SDS011;18201;50.978;7.034;2023-06-14T03:12:59;9.35;;;7.45;;
31596;SDS011;18201;50.978;7.034;2023-06-14T03:13:31;7.82;;;6.95;;